createdAt,value
2018-03-20T00:00:03.137Z,4.2
2018-03-20T00:15:02.385Z,4.2
2018-03-20T00:30:02.700Z,4.2
2018-03-20T00:45:03.000Z,4.2
2018-03-20T01:00:02.286Z,4.2
2018-03-20T01:15:02.516Z,4.2
2018-03-20T01:30:02.816Z,4.2
2018-03-20T01:45:03.163Z,4.2
2018-03-20T02:00:02.402Z,4.2
2018-03-20T02:15:02.694Z,4.2
2018-03-20T02:30:03.008Z,4.2
2018-03-20T02:45:02.267Z,4.1
2018-03-20T03:00:02.595Z,4.1
2018-03-20T03:15:02.883Z,4.1
2018-03-20T03:30:02.179Z,4.1
2018-03-20T03:45:02.440Z,4.1
2018-03-20T04:00:02.696Z,4.1
2018-03-20T04:15:02.925Z,4.1
2018-03-20T04:30:02.221Z,4.1
2018-03-20T04:45:02.503Z,4.1
2018-03-20T05:00:02.722Z,4.1
2018-03-20T05:15:02.908Z,4.1
2018-03-20T05:30:02.403Z,4.1
2018-03-20T05:45:02.672Z,4.1
2018-03-20T06:00:02.913Z,4.1
2018-03-20T06:15:03.151Z,4.1
2018-03-20T06:30:02.672Z,4
2018-03-20T06:45:02.919Z,4
2018-03-20T07:00:03.183Z,4
2018-03-20T07:15:02.407Z,4
2018-03-20T07:30:02.849Z,4
2018-03-20T07:45:03.134Z,4.1
2018-03-20T08:00:02.407Z,4.1
2018-03-20T08:15:02.625Z,4.1
2018-03-20T08:30:02.935Z,4.1
2018-03-20T08:45:03.197Z,4.1
2018-03-20T09:00:02.500Z,4.1
2018-03-20T09:15:02.755Z,4.1
2018-03-20T09:30:03.183Z,4.2
2018-03-20T09:45:02.450Z,4.2
2018-03-20T10:00:02.698Z,4.2
2018-03-20T10:15:02.922Z,4.3
2018-03-20T10:30:02.290Z,4.3
2018-03-20T10:45:02.510Z,4.3
2018-03-20T11:00:02.789Z,4.4
2018-03-20T11:15:03.000Z,4.4
2018-03-20T11:30:02.313Z,4.5
2018-03-20T11:45:02.575Z,4.6
2018-03-20T12:00:02.823Z,4.6
2018-03-20T12:15:03.100Z,4.7
2018-03-20T12:30:02.410Z,4.8
2018-03-20T12:45:02.679Z,4.8
2018-03-20T13:00:02.947Z,4.9
2018-03-20T13:15:03.305Z,4.9
2018-03-20T13:30:02.608Z,4.9
2018-03-20T13:45:02.816Z,5
2018-03-20T14:00:03.189Z,5.1
2018-03-20T14:15:02.444Z,5.1
2018-03-20T14:30:02.813Z,5.1
2018-03-20T14:45:03.034Z,5.1
2018-03-20T15:00:02.307Z,5.1
2018-03-20T15:15:02.589Z,5.1
2018-03-20T15:30:02.899Z,5.1
2018-03-20T15:45:03.197Z,5.1
2018-03-20T16:00:02.416Z,5.2
2018-03-20T16:15:02.681Z,5.2
2018-03-20T16:30:03.017Z,5.2
2018-03-20T16:45:02.291Z,5.2
2018-03-20T17:00:02.507Z,5.2
2018-03-20T17:15:02.776Z,5.2
2018-03-20T17:30:03.129Z,5.2
2018-03-20T17:45:02.419Z,5.2
2018-03-20T18:00:02.692Z,5.2
2018-03-20T18:15:02.908Z,5.1
2018-03-20T18:30:02.217Z,5.1
2018-03-20T18:45:02.468Z,5.1
2018-03-20T19:00:02.730Z,5.1
2018-03-20T19:15:02.997Z,5.1
2018-03-20T19:30:02.395Z,5.1
2018-03-20T19:45:02.621Z,5.1
2018-03-20T20:00:02.896Z,5
2018-03-20T20:15:03.140Z,5
2018-03-20T20:30:02.474Z,5
2018-03-20T20:45:02.725Z,4.9
2018-03-20T21:00:02.939Z,4.9
2018-03-20T21:15:03.217Z,4.9
2018-03-20T21:30:02.552Z,4.9
2018-03-20T21:45:02.820Z,4.9
2018-03-20T22:00:03.094Z,4.9
2018-03-20T22:15:02.403Z,4.9
2018-03-20T22:30:02.725Z,4.8
2018-03-20T22:45:02.973Z,4.8
2018-03-20T23:00:02.244Z,4.8
2018-03-20T23:15:02.491Z,4.8
2018-03-20T23:30:02.892Z,4.8
2018-03-20T23:45:03.148Z,4.8
